sensor_id;sensor_type;location;lat;lon;timestamp;temperature;humidity
7498;DHT22;3790;48.806;9.140;2023-03-31T00:00:12;11.70;99.90
7498;DHT22;3790;48.806;9.140;2023-03-31T00:05:14;11.50;99.90
7498;DHT22;3790;48.806;9.140;2023-03-31T00:10:17;11.50;99.90
7498;DHT22;3790;48.806;9.140;2023-03-31T00:15:19;11.50;99.90
7498;DHT22;3790;48.806;9.140;2023-03-31T00:20:20;11.50;99.90
7498;DHT22;3790;48.806;9.140;2023-03-31T00:25:22;11.40;99.90
7498;DHT22;3790;48.806;9.140;2023-03-31T00:30:22;11.60;99.90
7498;DHT22;3790;48.806;9.140;2023-03-31T00:35:23;11.60;99.90
7498;DHT22;3790;48.806;9.140;2023-03-31T00:40:24;11.70;99.90
7498;DHT22;3790;48.806;9.140;2023-03-31T00:45:29;11.70;99.90
7498;DHT22;3790;48.806;9.140;2023-03-31T00:50:34;11.80;99.90
7498;DHT22;3790;48.806;9.140;2023-03-31T00:55:40;11.80;99.90
7498;DHT22;3790;48.806;9.140;2023-03-31T01:00:41;11.80;99.90
7498;DHT22;3790;48.806;9.140;2023-03-31T01:05:45;11.90;99.90
7498;DHT22;3790;48.806;9.140;2023-03-31T01:10:50;12.00;99.90
7498;DHT22;3790;48.806;9.140;2023-03-31T01:15:51;12.00;99.90
7498;DHT22;3790;48.806;9.140;2023-03-31T01:48:14;12.10;99.90
7498;DHT22;3790;48.806;9.140;2023-03-31T01:58:51;12.20;99.90
7498;DHT22;3790;48.806;9.140;2023-03-31T02:04:09;11.50;99.90
7498;DHT22;3790;48.806;9.140;2023-03-31T02:09:24;11.00;99.90
7498;DHT22;3790;48.806;9.140;2023-03-31T02:14:29;11.00;99.90
7498;DHT22;3790;48.806;9.140;2023-03-31T02:19:33;11.30;99.90
7498;DHT22;3790;48.806;9.140;2023-03-31T02:24:37;10.90;99.90
7498;DHT22;3790;48.806;9.140;2023-03-31T02:29:40;10.40;99.90
7498;DHT22;3790;48.806;9.140;2023-03-31T02:34:41;10.10;99.90
7498;DHT22;3790;48.806;9.140;2023-03-31T02:39:44;10.00;99.90
7498;DHT22;3790;48.806;9.140;2023-03-31T02:44:46;9.90;99.90
7498;DHT22;3790;48.806;9.140;2023-03-31T02:49:50;9.80;99.90
7498;DHT22;3790;48.806;9.140;2023-03-31T03:05:20;10.00;99.90
7498;DHT22;3790;48.806;9.140;2023-03-31T03:15:47;10.00;99.90
7498;DHT22;3790;48.806;9.140;2023-03-31T03:20:48;10.00;99.90
7498;DHT22;3790;48.806;9.140;2023-03-31T03:25:53;9.90;99.90
7498;DHT22;3790;48.806;9.140;2023-03-31T03:30:53;9.80;99.90
7498;DHT22;3790;48.806;9.140;2023-03-31T03:35:54;9.60;99.90
7498;DHT22;3790;48.806;9.140;2023-03-31T03:40:54;9.50;99.90
7498;DHT22;3790;48.806;9.140;2023-03-31T03:45:55;9.50;99.90
7498;DHT22;3790;48.806;9.140;2023-03-31T03:50:58;9.70;99.90
7498;DHT22;3790;48.806;9.140;2023-03-31T03:55:59;9.90;99.90
7498;DHT22;3790;48.806;9.140;2023-03-31T04:01:00;10.10;99.90
7498;DHT22;3790;48.806;9.140;2023-03-31T04:06:01;10.00;99.90
7498;DHT22;3790;48.806;9.140;2023-03-31T04:11:16;9.70;99.90
7498;DHT22;3790;48.806;9.140;2023-03-31T04:16:16;9.40;99.90
7498;DHT22;3790;48.806;9.140;2023-03-31T04:21:17;9.20;99.90
7498;DHT22;3790;48.806;9.140;2023-03-31T04:26:27;9.20;99.90
7498;DHT22;3790;48.806;9.140;2023-03-31T04:31:39;9.40;99.90
7498;DHT22;3790;48.806;9.140;2023-03-31T04:36:43;9.70;99.90
7498;DHT22;3790;48.806;9.140;2023-03-31T04:41:46;9.90;99.90
7498;DHT22;3790;48.806;9.140;2023-03-31T04:46:47;10.00;99.90
7498;DHT22;3790;48.806;9.140;2023-03-31T04:51:47;10.10;99.90
7498;DHT22;3790;48.806;9.140;2023-03-31T04:56:48;10.10;99.90
7498;DHT22;3790;48.806;9.140;2023-03-31T05:01:48;10.10;99.90
7498;DHT22;3790;48.806;9.140;2023-03-31T05:06:49;10.00;99.90
7498;DHT22;3790;48.806;9.140;2023-03-31T05:11:49;10.10;99.90
7498;DHT22;3790;48.806;9.140;2023-03-31T05:16:50;10.20;99.90
7498;DHT22;3790;48.806;9.140;2023-03-31T05:21:51;10.10;99.90
7498;DHT22;3790;48.806;9.140;2023-03-31T05:26:52;9.80;99.90
7498;DHT22;3790;48.806;9.140;2023-03-31T05:31:52;9.60;99.90
7498;DHT22;3790;48.806;9.140;2023-03-31T05:36:53;9.50;99.90
7498;DHT22;3790;48.806;9.140;2023-03-31T05:41:53;9.50;99.90
7498;DHT22;3790;48.806;9.140;2023-03-31T05:46:54;9.40;99.90
7498;DHT22;3790;48.806;9.140;2023-03-31T05:51:54;9.50;99.90
7498;DHT22;3790;48.806;9.140;2023-03-31T05:56:55;9.50;99.90
7498;DHT22;3790;48.806;9.140;2023-03-31T06:01:55;9.60;99.90
7498;DHT22;3790;48.806;9.140;2023-03-31T06:06:56;9.70;99.90
7498;DHT22;3790;48.806;9.140;2023-03-31T06:11:57;9.70;99.90
7498;DHT22;3790;48.806;9.140;2023-03-31T06:16:57;9.70;99.90
7498;DHT22;3790;48.806;9.140;2023-03-31T06:21:58;9.80;99.90
7498;DHT22;3790;48.806;9.140;2023-03-31T06:26:59;9.80;99.90
7498;DHT22;3790;48.806;9.140;2023-03-31T06:32:00;9.90;99.90
7498;DHT22;3790;48.806;9.140;2023-03-31T06:37:01;10.00;99.90
7498;DHT22;3790;48.806;9.140;2023-03-31T06:42:01;9.90;99.90
7498;DHT22;3790;48.806;9.140;2023-03-31T06:47:02;9.90;99.90
7498;DHT22;3790;48.806;9.140;2023-03-31T06:52:03;9.80;99.90
7498;DHT22;3790;48.806;9.140;2023-03-31T06:57:03;9.70;99.90
7498;DHT22;3790;48.806;9.140;2023-03-31T07:02:04;9.60;99.90
7498;DHT22;3790;48.806;9.140;2023-03-31T07:07:04;9.50;99.90
7498;DHT22;3790;48.806;9.140;2023-03-31T07:12:05;9.50;99.90
7498;DHT22;3790;48.806;9.140;2023-03-31T07:17:05;9.40;99.90
7498;DHT22;3790;48.806;9.140;2023-03-31T07:22:06;9.40;99.90
7498;DHT22;3790;48.806;9.140;2023-03-31T07:27:07;9.50;99.90
7498;DHT22;3790;48.806;9.140;2023-03-31T07:32:10;9.40;99.90
7498;DHT22;3790;48.806;9.140;2023-03-31T07:37:10;9.50;99.90
7498;DHT22;3790;48.806;9.140;2023-03-31T07:42:11;9.40;99.90
7498;DHT22;3790;48.806;9.140;2023-03-31T07:47:14;9.20;99.90
7498;DHT22;3790;48.806;9.140;2023-03-31T07:52:15;9.30;99.90
7498;DHT22;3790;48.806;9.140;2023-03-31T07:57:17;9.50;99.90
7498;DHT22;3790;48.806;9.140;2023-03-31T08:02:19;9.70;99.90
7498;DHT22;3790;48.806;9.140;2023-03-31T08:07:19;10.00;99.90
7498;DHT22;3790;48.806;9.140;2023-03-31T08:12:20;10.20;99.90
7498;DHT22;3790;48.806;9.140;2023-03-31T08:17:20;10.40;99.90
7498;DHT22;3790;48.806;9.140;2023-03-31T08:22:21;10.60;99.90
7498;DHT22;3790;48.806;9.140;2023-03-31T08:27:22;10.80;99.90
7498;DHT22;3790;48.806;9.140;2023-03-31T08:32:23;11.10;99.90
7498;DHT22;3790;48.806;9.140;2023-03-31T08:37:24;11.20;99.90
7498;DHT22;3790;48.806;9.140;2023-03-31T08:42:37;11.40;99.90
7498;DHT22;3790;48.806;9.140;2023-03-31T08:47:39;11.60;99.90
7498;DHT22;3790;48.806;9.140;2023-03-31T08:52:44;11.70;99.90
7498;DHT22;3790;48.806;9.140;2023-03-31T09:08:37;13.00;99.90
7498;DHT22;3790;48.806;9.140;2023-03-31T09:14:00;13.20;99.90
7498;DHT22;3790;48.806;9.140;2023-03-31T09:24:30;13.30;99.90
7498;DHT22;3790;48.806;9.140;2023-03-31T09:29:54;13.50;99.90
7498;DHT22;3790;48.806;9.140;2023-03-31T09:34:59;13.90;99.90
7498;DHT22;3790;48.806;9.140;2023-03-31T09:40:03;13.90;99.90
7498;DHT22;3790;48.806;9.140;2023-03-31T09:45:14;14.00;99.90
7498;DHT22;3790;48.806;9.140;2023-03-31T09:50:15;14.10;99.90
7498;DHT22;3790;48.806;9.140;2023-03-31T09:55:23;14.10;99.90
7498;DHT22;3790;48.806;9.140;2023-03-31T10:00:24;15.20;99.90
7498;DHT22;3790;48.806;9.140;2023-03-31T10:05:29;15.30;99.90
7498;DHT22;3790;48.806;9.140;2023-03-31T10:10:32;15.90;99.90
7498;DHT22;3790;48.806;9.140;2023-03-31T10:15:36;16.00;99.90
7498;DHT22;3790;48.806;9.140;2023-03-31T10:20:38;15.10;99.90
7498;DHT22;3790;48.806;9.140;2023-03-31T10:25:44;15.10;99.90
7498;DHT22;3790;48.806;9.140;2023-03-31T10:30:49;15.50;99.90
7498;DHT22;3790;48.806;9.140;2023-03-31T10:36:07;16.10;99.90
7498;DHT22;3790;48.806;9.140;2023-03-31T10:41:08;16.70;99.90
7498;DHT22;3790;48.806;9.140;2023-03-31T10:46:11;16.60;99.90
7498;DHT22;3790;48.806;9.140;2023-03-31T10:51:26;16.90;99.90
7498;DHT22;3790;48.806;9.140;2023-03-31T11:07:45;16.70;99.90
7498;DHT22;3790;48.806;9.140;2023-03-31T11:12:59;15.90;99.90
7498;DHT22;3790;48.806;9.140;2023-03-31T11:23:42;13.50;99.90
7498;DHT22;3790;48.806;9.140;2023-03-31T11:34:51;8.60;99.90
7498;DHT22;3790;48.806;9.140;2023-03-31T11:45:31;8.40;99.90
7498;DHT22;3790;48.806;9.140;2023-03-31T11:50:35;8.50;99.90
7498;DHT22;3790;48.806;9.140;2023-03-31T11:55:39;8.80;99.90
7498;DHT22;3790;48.806;9.140;2023-03-31T12:00:45;9.50;99.90
7498;DHT22;3790;48.806;9.140;2023-03-31T12:05:55;10.40;99.90
7498;DHT22;3790;48.806;9.140;2023-03-31T12:11:31;11.50;99.90
7498;DHT22;3790;48.806;9.140;2023-03-31T12:21:35;18.10;99.90
7498;DHT22;3790;48.806;9.140;2023-03-31T12:26:43;16.60;99.90
7498;DHT22;3790;48.806;9.140;2023-03-31T12:31:45;15.50;99.90
7498;DHT22;3790;48.806;9.140;2023-03-31T12:52:57;19.90;99.90
7498;DHT22;3790;48.806;9.140;2023-03-31T13:03:41;20.90;99.90
7498;DHT22;3790;48.806;9.140;2023-03-31T13:14:23;18.40;99.90
7498;DHT22;3790;48.806;9.140;2023-03-31T13:19:35;14.70;99.90
7498;DHT22;3790;48.806;9.140;2023-03-31T13:24:36;11.60;99.90
7498;DHT22;3790;48.806;9.140;2023-03-31T13:29:41;10.40;99.90
7498;DHT22;3790;48.806;9.140;2023-03-31T13:34:53;10.00;99.90
7498;DHT22;3790;48.806;9.140;2023-03-31T13:50:55;10.20;99.90
7498;DHT22;3790;48.806;9.140;2023-03-31T14:06:37;8.70;99.90
7498;DHT22;3790;48.806;9.140;2023-03-31T14:11:40;8.50;99.90
7498;DHT22;3790;48.806;9.140;2023-03-31T14:16:48;9.30;99.90
7498;DHT22;3790;48.806;9.140;2023-03-31T14:38:09;19.80;99.90
7498;DHT22;3790;48.806;9.140;2023-03-31T14:43:24;21.30;99.90
7498;DHT22;3790;48.806;9.140;2023-03-31T14:48:27;21.60;99.90
7498;DHT22;3790;48.806;9.140;2023-03-31T14:53:28;20.80;99.90
7498;DHT22;3790;48.806;9.140;2023-03-31T14:58:32;19.90;99.90
7498;DHT22;3790;48.806;9.140;2023-03-31T15:03:37;19.80;99.90
7498;DHT22;3790;48.806;9.140;2023-03-31T15:08:40;20.90;99.90
7498;DHT22;3790;48.806;9.140;2023-03-31T15:13:46;20.00;99.90
7498;DHT22;3790;48.806;9.140;2023-03-31T15:18:48;19.40;99.90
7498;DHT22;3790;48.806;9.140;2023-03-31T15:23:54;18.90;99.90
7498;DHT22;3790;48.806;9.140;2023-03-31T15:29:07;17.20;99.90
7498;DHT22;3790;48.806;9.140;2023-03-31T15:34:19;17.50;99.90
7498;DHT22;3790;48.806;9.140;2023-03-31T15:39:25;15.30;99.90
7498;DHT22;3790;48.806;9.140;2023-03-31T15:44:36;14.60;99.90
7498;DHT22;3790;48.806;9.140;2023-03-31T15:49:46;13.90;99.90
7498;DHT22;3790;48.806;9.140;2023-03-31T15:54:48;13.70;99.90
7498;DHT22;3790;48.806;9.140;2023-03-31T15:59:50;13.20;99.90
7498;DHT22;3790;48.806;9.140;2023-03-31T16:04:56;13.20;99.90
7498;DHT22;3790;48.806;9.140;2023-03-31T16:10:21;13.00;99.90
7498;DHT22;3790;48.806;9.140;2023-03-31T16:15:49;12.80;99.90
7498;DHT22;3790;48.806;9.140;2023-03-31T16:20:56;12.70;99.90
7498;DHT22;3790;48.806;9.140;2023-03-31T16:25:58;12.20;99.90
7498;DHT22;3790;48.806;9.140;2023-03-31T16:31:00;11.90;99.90
7498;DHT22;3790;48.806;9.140;2023-03-31T16:36:01;11.80;99.90
7498;DHT22;3790;48.806;9.140;2023-03-31T16:41:04;11.40;99.90
7498;DHT22;3790;48.806;9.140;2023-03-31T16:46:09;10.90;99.90
7498;DHT22;3790;48.806;9.140;2023-03-31T16:51:13;11.50;99.90
7498;DHT22;3790;48.806;9.140;2023-03-31T16:56:14;12.40;99.90
7498;DHT22;3790;48.806;9.140;2023-03-31T17:01:22;12.40;99.90
7498;DHT22;3790;48.806;9.140;2023-03-31T17:06:23;11.40;99.90
7498;DHT22;3790;48.806;9.140;2023-03-31T17:11:26;10.90;99.90
7498;DHT22;3790;48.806;9.140;2023-03-31T17:16:33;10.60;99.90
7498;DHT22;3790;48.806;9.140;2023-03-31T17:21:34;10.40;99.90
7498;DHT22;3790;48.806;9.140;2023-03-31T17:26:36;10.20;99.90
7498;DHT22;3790;48.806;9.140;2023-03-31T17:31:38;10.10;99.90
7498;DHT22;3790;48.806;9.140;2023-03-31T17:36:39;10.00;99.90
7498;DHT22;3790;48.806;9.140;2023-03-31T17:41:41;10.00;99.90
7498;DHT22;3790;48.806;9.140;2023-03-31T17:46:48;10.00;99.90
7498;DHT22;3790;48.806;9.140;2023-03-31T17:51:49;10.00;99.90
7498;DHT22;3790;48.806;9.140;2023-03-31T17:56:50;9.90;99.90
7498;DHT22;3790;48.806;9.140;2023-03-31T18:01:50;9.30;99.90
7498;DHT22;3790;48.806;9.140;2023-03-31T18:06:51;8.80;99.90
7498;DHT22;3790;48.806;9.140;2023-03-31T18:11:52;8.50;99.90
7498;DHT22;3790;48.806;9.140;2023-03-31T18:16:53;8.30;99.90
7498;DHT22;3790;48.806;9.140;2023-03-31T18:21:54;8.10;99.90
7498;DHT22;3790;48.806;9.140;2023-03-31T18:26:54;7.90;99.90
7498;DHT22;3790;48.806;9.140;2023-03-31T18:31:56;7.90;99.90
7498;DHT22;3790;48.806;9.140;2023-03-31T18:36:56;7.80;99.90
7498;DHT22;3790;48.806;9.140;2023-03-31T18:41:57;7.80;99.90
7498;DHT22;3790;48.806;9.140;2023-03-31T18:46:58;7.70;99.90
7498;DHT22;3790;48.806;9.140;2023-03-31T18:51:59;7.70;99.90
7498;DHT22;3790;48.806;9.140;2023-03-31T18:57:01;7.70;99.90
7498;DHT22;3790;48.806;9.140;2023-03-31T19:02:02;7.70;99.90
7498;DHT22;3790;48.806;9.140;2023-03-31T19:07:03;7.70;99.90
7498;DHT22;3790;48.806;9.140;2023-03-31T19:12:03;7.80;99.90
7498;DHT22;3790;48.806;9.140;2023-03-31T19:17:04;7.80;99.90
7498;DHT22;3790;48.806;9.140;2023-03-31T19:22:05;7.90;99.90
7498;DHT22;3790;48.806;9.140;2023-03-31T19:27:06;7.90;99.90
7498;DHT22;3790;48.806;9.140;2023-03-31T19:32:07;7.80;99.90
7498;DHT22;3790;48.806;9.140;2023-03-31T19:37:08;7.80;99.90
7498;DHT22;3790;48.806;9.140;2023-03-31T19:42:09;7.90;99.90
7498;DHT22;3790;48.806;9.140;2023-03-31T19:47:09;7.80;99.90
7498;DHT22;3790;48.806;9.140;2023-03-31T19:52:10;8.00;99.90
7498;DHT22;3790;48.806;9.140;2023-03-31T19:57:11;8.10;99.90
7498;DHT22;3790;48.806;9.140;2023-03-31T20:02:14;8.30;99.90
7498;DHT22;3790;48.806;9.140;2023-03-31T20:07:15;8.40;99.90
7498;DHT22;3790;48.806;9.140;2023-03-31T20:12:15;8.60;99.90
7498;DHT22;3790;48.806;9.140;2023-03-31T20:17:16;8.70;99.90
7498;DHT22;3790;48.806;9.140;2023-03-31T20:22:16;8.70;99.90
7498;DHT22;3790;48.806;9.140;2023-03-31T20:27:17;8.80;99.90
7498;DHT22;3790;48.806;9.140;2023-03-31T20:32:17;8.80;99.90
7498;DHT22;3790;48.806;9.140;2023-03-31T20:37:18;8.60;99.90
7498;DHT22;3790;48.806;9.140;2023-03-31T20:42:19;8.60;99.90
7498;DHT22;3790;48.806;9.140;2023-03-31T20:47:20;8.70;99.90
7498;DHT22;3790;48.806;9.140;2023-03-31T20:52:20;8.70;99.90
7498;DHT22;3790;48.806;9.140;2023-03-31T20:57:22;8.70;99.90
7498;DHT22;3790;48.806;9.140;2023-03-31T21:02:25;8.70;99.90
7498;DHT22;3790;48.806;9.140;2023-03-31T21:07:25;8.70;99.90
7498;DHT22;3790;48.806;9.140;2023-03-31T21:12:26;8.70;99.90
7498;DHT22;3790;48.806;9.140;2023-03-31T21:17:26;8.70;99.90
7498;DHT22;3790;48.806;9.140;2023-03-31T21:22:27;8.60;99.90
7498;DHT22;3790;48.806;9.140;2023-03-31T21:27:27;8.60;99.90
7498;DHT22;3790;48.806;9.140;2023-03-31T21:32:28;8.60;99.90
7498;DHT22;3790;48.806;9.140;2023-03-31T21:37:29;8.50;99.90
7498;DHT22;3790;48.806;9.140;2023-03-31T21:42:32;8.50;99.90
7498;DHT22;3790;48.806;9.140;2023-03-31T21:47:33;8.50;99.90
7498;DHT22;3790;48.806;9.140;2023-03-31T21:52:33;8.50;99.90
7498;DHT22;3790;48.806;9.140;2023-03-31T21:57:34;8.60;99.90
7498;DHT22;3790;48.806;9.140;2023-03-31T22:02:37;8.70;99.90
7498;DHT22;3790;48.806;9.140;2023-03-31T22:07:38;8.30;99.90
7498;DHT22;3790;48.806;9.140;2023-03-31T22:12:38;8.10;99.90
7498;DHT22;3790;48.806;9.140;2023-03-31T22:17:39;7.90;99.90
7498;DHT22;3790;48.806;9.140;2023-03-31T22:22:42;7.90;99.90
7498;DHT22;3790;48.806;9.140;2023-03-31T22:27:42;7.90;99.90
7498;DHT22;3790;48.806;9.140;2023-03-31T22:32:43;7.90;99.90
7498;DHT22;3790;48.806;9.140;2023-03-31T22:37:43;7.80;99.90
7498;DHT22;3790;48.806;9.140;2023-03-31T22:42:46;7.70;99.90
7498;DHT22;3790;48.806;9.140;2023-03-31T22:47:47;7.50;99.90
7498;DHT22;3790;48.806;9.140;2023-03-31T22:52:47;7.50;99.90
7498;DHT22;3790;48.806;9.140;2023-03-31T22:57:48;7.50;99.90
7498;DHT22;3790;48.806;9.140;2023-03-31T23:02:48;7.60;99.90
7498;DHT22;3790;48.806;9.140;2023-03-31T23:07:50;7.70;99.90
7498;DHT22;3790;48.806;9.140;2023-03-31T23:12:50;7.70;99.90
7498;DHT22;3790;48.806;9.140;2023-03-31T23:17:51;7.70;99.90
7498;DHT22;3790;48.806;9.140;2023-03-31T23:22:52;7.70;99.90
7498;DHT22;3790;48.806;9.140;2023-03-31T23:27:52;7.70;99.90
7498;DHT22;3790;48.806;9.140;2023-03-31T23:32:53;7.80;99.90
7498;DHT22;3790;48.806;9.140;2023-03-31T23:37:53;7.70;99.90
7498;DHT22;3790;48.806;9.140;2023-03-31T23:42:54;7.70;99.90
7498;DHT22;3790;48.806;9.140;2023-03-31T23:47:54;7.60;99.90
7498;DHT22;3790;48.806;9.140;2023-03-31T23:52:55;7.60;99.90
7498;DHT22;3790;48.806;9.140;2023-03-31T23:57:58;7.60;99.90
